createdAt,value
2018-01-29T00:00:41.064Z,22.1
2018-01-29T00:01:41.546Z,22.1
2018-01-29T00:02:41.100Z,22.1
2018-01-29T00:03:41.024Z,22.1
2018-01-29T00:04:40.820Z,22.1
2018-01-29T00:05:41.157Z,22.1
2018-01-29T00:06:41.079Z,22.1
2018-01-29T00:07:41.092Z,22.1
2018-01-29T00:08:40.518Z,22.1
2018-01-29T00:09:41.004Z,22.1
2018-01-29T00:10:40.667Z,22.1
2018-01-29T00:11:40.442Z,22.1
2018-01-29T00:12:40.576Z,22.1
2018-01-29T00:13:40.132Z,22.1
2018-01-29T00:14:40.340Z,22.1
2018-01-29T00:15:40.473Z,22.1
2018-01-29T00:16:39.994Z,22.1
2018-01-29T00:17:40.173Z,22.1
2018-01-29T00:18:39.959Z,22.1
2018-01-29T00:19:39.837Z,22.1
2018-01-29T00:20:39.830Z,22.1
2018-01-29T00:21:40.040Z,22.1
2018-01-29T00:22:40.102Z,22.1
2018-01-29T00:23:39.608Z,22.1
2018-01-29T00:24:39.458Z,22.1
2018-01-29T00:25:39.617Z,22.1
2018-01-29T00:26:39.653Z,22.1
2018-01-29T00:27:39.912Z,22.1
2018-01-29T00:28:39.359Z,22.1
2018-01-29T00:29:39.332Z,22.1
2018-01-29T00:30:39.217Z,22.1
2018-01-29T00:31:38.886Z,22.1
2018-01-29T00:32:38.991Z,22.1
2018-01-29T00:33:39.166Z,22.1
2018-01-29T00:34:39.050Z,22.1
2018-01-29T00:35:38.620Z,22.1
2018-01-29T00:36:38.916Z,22.1
2018-01-29T00:37:38.654Z,22.1
2018-01-29T00:38:38.781Z,22.1
2018-01-29T00:39:38.513Z,22.1
2018-01-29T00:40:38.704Z,22.1
2018-01-29T00:41:38.351Z,22.1
2018-01-29T00:42:38.747Z,22.1
2018-01-29T00:43:38.239Z,22.1
2018-01-29T00:44:38.272Z,22.1
2018-01-29T00:45:38.200Z,22.1
2018-01-29T00:46:38.035Z,22.1
2018-01-29T00:47:38.041Z,22.1
2018-01-29T00:48:37.886Z,22.1
2018-01-29T00:49:37.958Z,22
2018-01-29T00:50:37.838Z,22.1
2018-01-29T00:51:37.619Z,22.1
2018-01-29T00:52:37.613Z,22.1
2018-01-29T00:53:37.432Z,22.1
2018-01-29T00:54:37.693Z,22
2018-01-29T00:55:37.490Z,22.1
2018-01-29T00:56:37.262Z,22.1
2018-01-29T00:57:37.367Z,22
2018-01-29T00:58:37.496Z,22
2018-01-29T00:59:37.126Z,22
2018-01-29T01:00:37.262Z,22
2018-01-29T01:01:36.989Z,22.1
2018-01-29T01:02:36.829Z,22
2018-01-29T01:03:37.223Z,22
2018-01-29T01:04:36.887Z,22
2018-01-29T01:05:36.821Z,22
2018-01-29T01:06:36.636Z,22
2018-01-29T01:07:36.497Z,22
2018-01-29T01:08:36.820Z,22
2018-01-29T01:09:36.439Z,22
2018-01-29T01:10:36.363Z,22
2018-01-29T01:11:36.211Z,22
2018-01-29T01:12:36.795Z,22
2018-01-29T01:13:36.047Z,22
2018-01-29T01:14:36.550Z,22
2018-01-29T01:15:35.911Z,22
2018-01-29T01:16:36.065Z,22
2018-01-29T01:17:35.774Z,22
2018-01-29T01:18:36.090Z,22
2018-01-29T01:19:36.122Z,22
2018-01-29T01:20:35.532Z,22
2018-01-29T01:21:35.776Z,22
2018-01-29T01:22:35.927Z,22
2018-01-29T01:23:35.390Z,22
2018-01-29T01:24:35.481Z,22
2018-01-29T01:25:35.330Z,22
2018-01-29T01:26:35.366Z,22
2018-01-29T01:27:35.196Z,22
2018-01-29T01:28:35.202Z,22
2018-01-29T01:29:35.030Z,22
2018-01-29T01:30:35.183Z,22
2018-01-29T01:31:34.976Z,22
2018-01-29T01:32:34.954Z,22
2018-01-29T01:33:34.887Z,22
2018-01-29T01:34:34.704Z,22
2018-01-29T01:35:34.745Z,22
2018-01-29T01:36:34.846Z,22
2018-01-29T01:37:34.654Z,22
2018-01-29T01:38:34.427Z,22
2018-01-29T01:39:34.313Z,22
2018-01-29T01:40:34.381Z,22
2018-01-29T01:41:34.310Z,21.9
2018-01-29T01:42:33.975Z,22
2018-01-29T01:43:34.290Z,21.9
2018-01-29T01:44:33.991Z,21.9
2018-01-29T01:45:33.927Z,21.9
2018-01-29T01:46:34.137Z,21.9
2018-01-29T01:47:33.805Z,22
2018-01-29T01:48:33.741Z,21.9
2018-01-29T01:49:33.571Z,21.9
2018-01-29T01:50:33.511Z,22
2018-01-29T01:51:33.502Z,21.9
2018-01-29T01:52:33.566Z,22
2018-01-29T01:53:33.351Z,21.9
2018-01-29T01:54:33.443Z,22
2018-01-29T01:55:33.307Z,21.9
2018-01-29T01:56:33.788Z,21.9
2018-01-29T01:57:33.622Z,21.9
2018-01-29T01:58:33.258Z,21.9
2018-01-29T01:59:33.082Z,22
2018-01-29T02:00:32.930Z,21.9
2018-01-29T02:01:33.067Z,21.9
2018-01-29T02:02:32.798Z,21.9
2018-01-29T02:03:32.637Z,21.9
2018-01-29T02:04:32.618Z,21.9
2018-01-29T02:05:32.824Z,21.9
2018-01-29T02:06:32.695Z,21.9
2018-01-29T02:07:32.551Z,21.9
2018-01-29T02:08:32.561Z,21.9
2018-01-29T02:09:32.474Z,22
2018-01-29T02:10:32.906Z,21.9
2018-01-29T02:11:32.216Z,21.9
2018-01-29T02:12:31.985Z,21.9
2018-01-29T02:13:32.260Z,21.9
2018-01-29T02:14:31.941Z,21.9
2018-01-29T02:15:32.262Z,21.9
2018-01-29T02:16:32.193Z,21.9
2018-01-29T02:17:32.010Z,21.9
2018-01-29T02:18:31.602Z,21.9
2018-01-29T02:19:32.098Z,21.9
2018-01-29T02:20:31.911Z,21.9
2018-01-29T02:21:31.678Z,21.9
2018-01-29T02:22:31.701Z,21.9
2018-01-29T02:23:31.226Z,21.9
2018-01-29T02:24:31.526Z,21.9
2018-01-29T02:25:31.210Z,21.9
2018-01-29T02:26:31.209Z,21.9
2018-01-29T02:27:31.265Z,21.9
2018-01-29T02:28:31.157Z,21.9
2018-01-29T02:29:31.020Z,21.9
2018-01-29T02:30:30.920Z,21.9
2018-01-29T02:31:30.586Z,21.9
2018-01-29T02:32:31.066Z,21.9
2018-01-29T02:33:30.735Z,21.9
2018-01-29T02:34:30.701Z,21.9
2018-01-29T02:35:30.540Z,21.9
2018-01-29T02:36:30.367Z,21.9
2018-01-29T02:37:30.346Z,21.9
2018-01-29T02:38:30.483Z,21.9
2018-01-29T02:39:30.208Z,21.9
2018-01-29T02:40:30.385Z,21.9
2018-01-29T02:41:30.693Z,21.9
2018-01-29T02:42:29.894Z,21.9
2018-01-29T02:43:30.008Z,21.9
2018-01-29T02:44:29.673Z,21.9
2018-01-29T02:45:29.969Z,21.9
2018-01-29T02:46:29.893Z,21.9
2018-01-29T02:47:29.622Z,21.9
2018-01-29T02:48:29.556Z,21.9
2018-01-29T02:49:29.480Z,21.9
2018-01-29T02:50:29.353Z,21.9
2018-01-29T02:51:29.890Z,21.9
2018-01-29T02:52:29.216Z,21.9
2018-01-29T02:53:29.036Z,21.9
2018-01-29T02:54:29.035Z,21.9
2018-01-29T02:55:28.905Z,21.9
2018-01-29T02:56:28.764Z,21.9
2018-01-29T02:57:28.886Z,21.9
2018-01-29T02:58:28.748Z,21.9
2018-01-29T02:59:29.385Z,21.9
2018-01-29T03:00:28.887Z,21.9
2018-01-29T03:01:28.426Z,21.9
2018-01-29T03:02:28.520Z,21.9
2018-01-29T03:03:28.356Z,21.9
2018-01-29T03:04:28.436Z,21.9
2018-01-29T03:05:28.086Z,21.9
2018-01-29T03:06:27.997Z,21.9
2018-01-29T03:07:28.188Z,21.9
2018-01-29T03:08:27.861Z,21.9
2018-01-29T03:09:27.987Z,21.9
2018-01-29T03:10:27.992Z,21.9
2018-01-29T03:11:27.614Z,21.9
2018-01-29T03:12:27.775Z,21.9
2018-01-29T03:13:27.686Z,21.9
2018-01-29T03:14:27.686Z,21.9
2018-01-29T03:15:27.844Z,21.9
2018-01-29T03:16:27.228Z,21.9
2018-01-29T03:17:27.170Z,21.9
2018-01-29T03:18:27.266Z,21.9
2018-01-29T03:19:26.994Z,21.9
2018-01-29T03:20:27.214Z,21.9
2018-01-29T03:21:27.161Z,21.9
2018-01-29T03:22:27.014Z,21.9
2018-01-29T03:23:26.956Z,21.9
2018-01-29T03:24:26.675Z,21.9
2018-01-29T03:25:26.819Z,21.9
2018-01-29T03:26:26.648Z,21.9
2018-01-29T03:27:26.476Z,21.9
2018-01-29T03:28:26.291Z,21.9
2018-01-29T03:29:26.247Z,21.9
2018-01-29T03:30:26.115Z,21.9
2018-01-29T03:31:26.440Z,21.9
2018-01-29T03:32:26.241Z,21.9
2018-01-29T03:33:26.376Z,21.9
2018-01-29T03:34:25.833Z,21.9
2018-01-29T03:35:26.100Z,21.9
2018-01-29T03:36:25.787Z,21.9
2018-01-29T03:37:25.788Z,21.9
2018-01-29T03:38:25.653Z,21.9
2018-01-29T03:39:25.777Z,21.9
2018-01-29T03:40:25.443Z,21.9
2018-01-29T03:41:25.493Z,21.9
2018-01-29T03:42:25.498Z,21.9
2018-01-29T03:43:25.501Z,21.9
2018-01-29T03:44:25.615Z,21.9
2018-01-29T03:45:25.001Z,21.9
2018-01-29T03:46:25.081Z,21.9
2018-01-29T03:47:24.973Z,21.9
2018-01-29T03:48:25.109Z,21.9
2018-01-29T03:49:25.062Z,21.9
2018-01-29T03:50:24.493Z,21.9
2018-01-29T03:51:24.580Z,21.9
2018-01-29T03:52:24.506Z,21.9
2018-01-29T03:53:24.730Z,21.9
2018-01-29T03:54:24.284Z,21.9
2018-01-29T03:55:24.444Z,21.9
2018-01-29T03:56:24.283Z,21.9
2018-01-29T03:57:24.198Z,21.9
2018-01-29T03:58:24.374Z,21.9
2018-01-29T03:59:23.948Z,21.9
2018-01-29T04:00:23.825Z,21.9
2018-01-29T04:01:23.966Z,21.9
2018-01-29T04:02:24.005Z,21.9
2018-01-29T04:03:24.072Z,21.9
2018-01-29T04:04:23.662Z,21.9
2018-01-29T04:05:23.574Z,21.9
2018-01-29T04:06:23.604Z,22
2018-01-29T04:07:23.328Z,21.9
2018-01-29T04:08:23.207Z,21.9
2018-01-29T04:09:23.167Z,21.9
2018-01-29T04:10:23.308Z,21.9
2018-01-29T04:11:22.902Z,21.9
2018-01-29T04:12:22.937Z,21.9
2018-01-29T04:13:22.822Z,21.9
2018-01-29T04:14:22.675Z,21.9
2018-01-29T04:15:22.802Z,21.9
2018-01-29T04:16:22.660Z,21.9
2018-01-29T04:17:22.559Z,21.9
2018-01-29T04:18:22.670Z,21.9
2018-01-29T04:19:22.695Z,21.9
2018-01-29T04:20:22.295Z,21.9
2018-01-29T04:21:22.218Z,21.9
2018-01-29T04:22:23.010Z,21.9
2018-01-29T04:23:22.266Z,21.9
2018-01-29T04:24:22.025Z,21.8
2018-01-29T04:25:21.816Z,21.9
2018-01-29T04:26:22.270Z,21.9
2018-01-29T04:27:21.644Z,21.9
2018-01-29T04:28:21.873Z,21.8
2018-01-29T04:29:21.690Z,21.9
2018-01-29T04:30:21.622Z,21.9
2018-01-29T04:31:21.548Z,21.9
2018-01-29T04:32:21.645Z,21.9
2018-01-29T04:33:21.601Z,21.9
2018-01-29T04:34:21.078Z,21.9
2018-01-29T04:35:21.394Z,21.9
2018-01-29T04:36:21.447Z,21.9
2018-01-29T04:37:20.791Z,21.9
2018-01-29T04:38:21.087Z,21.9
2018-01-29T04:39:20.958Z,21.9
2018-01-29T04:40:20.914Z,21.9
2018-01-29T04:41:20.540Z,21.9
2018-01-29T04:42:20.616Z,21.9
2018-01-29T04:43:20.757Z,21.9
2018-01-29T04:44:20.632Z,21.9
2018-01-29T04:45:20.435Z,21.9
2018-01-29T04:46:20.256Z,21.9
2018-01-29T04:47:20.170Z,21.9
2018-01-29T04:48:20.139Z,21.9
2018-01-29T04:49:20.285Z,21.9
2018-01-29T04:50:20.105Z,21.9
2018-01-29T04:51:19.851Z,21.9
2018-01-29T04:52:19.785Z,21.9
2018-01-29T04:53:20.104Z,21.9
2018-01-29T04:54:19.848Z,21.9
2018-01-29T04:55:19.752Z,21.8
2018-01-29T04:56:19.401Z,21.9
2018-01-29T04:57:19.384Z,21.9
2018-01-29T04:58:19.473Z,21.9
2018-01-29T04:59:19.206Z,21.8
2018-01-29T05:00:19.357Z,21.8
2018-01-29T05:01:19.172Z,21.8
2018-01-29T05:02:18.994Z,21.8
2018-01-29T05:03:19.032Z,21.8
2018-01-29T05:04:19.245Z,21.8
2018-01-29T05:05:18.912Z,21.9
2018-01-29T05:06:18.652Z,21.9
2018-01-29T05:07:18.952Z,21.9
2018-01-29T05:08:18.440Z,21.8
2018-01-29T05:09:18.659Z,21.8
2018-01-29T05:10:18.481Z,21.9
2018-01-29T05:11:18.490Z,21.9
2018-01-29T05:12:18.142Z,21.9
2018-01-29T05:13:18.644Z,21.9
2018-01-29T05:14:18.537Z,21.9
2018-01-29T05:15:18.082Z,21.9
2018-01-29T05:16:17.986Z,21.9
2018-01-29T05:17:17.842Z,21.9
2018-01-29T05:18:17.743Z,21.9
2018-01-29T05:19:17.865Z,21.9
2018-01-29T05:20:17.694Z,21.9
2018-01-29T05:21:17.507Z,21.9
2018-01-29T05:22:17.431Z,21.9
2018-01-29T05:23:17.286Z,21.9
2018-01-29T05:24:17.473Z,21.9
2018-01-29T05:25:17.089Z,21.9
2018-01-29T05:26:17.217Z,21.9
2018-01-29T05:27:17.402Z,21.9
2018-01-29T05:28:16.886Z,21.9
2018-01-29T05:29:16.967Z,21.9
2018-01-29T05:30:16.953Z,21.9
2018-01-29T05:31:17.024Z,21.9
2018-01-29T05:32:16.843Z,21.9
2018-01-29T05:33:16.381Z,21.9
2018-01-29T05:34:16.475Z,21.9
2018-01-29T05:35:16.510Z,22
2018-01-29T05:36:16.537Z,22
2018-01-29T05:37:16.177Z,22
2018-01-29T05:38:16.135Z,22
2018-01-29T05:39:16.075Z,22
2018-01-29T05:40:16.194Z,22
2018-01-29T05:41:16.192Z,22
2018-01-29T05:42:15.768Z,22
2018-01-29T05:43:16.095Z,22
2018-01-29T05:44:15.627Z,22
2018-01-29T05:45:15.622Z,22
2018-01-29T05:46:15.541Z,22
2018-01-29T05:47:15.653Z,22
2018-01-29T05:48:15.575Z,22
2018-01-29T05:49:15.509Z,22
2018-01-29T05:50:15.143Z,22
2018-01-29T05:51:15.405Z,22
2018-01-29T05:52:14.967Z,22
2018-01-29T05:53:15.046Z,22
2018-01-29T05:54:15.122Z,22
2018-01-29T05:55:14.970Z,22
2018-01-29T05:56:14.967Z,22
2018-01-29T05:57:14.683Z,22
2018-01-29T05:58:14.699Z,22
2018-01-29T05:59:14.615Z,22
2018-01-29T06:00:14.490Z,22
2018-01-29T06:01:14.544Z,22
2018-01-29T06:02:14.329Z,22
2018-01-29T06:03:14.314Z,22
2018-01-29T06:04:14.319Z,21.9
2018-01-29T06:05:14.624Z,22
2018-01-29T06:06:13.794Z,22
2018-01-29T06:07:14.095Z,22
2018-01-29T06:08:13.929Z,22
2018-01-29T06:09:13.984Z,22
2018-01-29T06:10:13.660Z,22
2018-01-29T06:11:13.552Z,22
2018-01-29T06:12:13.588Z,22
2018-01-29T06:13:13.431Z,22
2018-01-29T06:14:13.553Z,22.1
2018-01-29T06:15:13.483Z,22.1
2018-01-29T06:16:13.425Z,22.1
2018-01-29T06:17:13.135Z,22.1
2018-01-29T06:18:13.061Z,22.1
2018-01-29T06:19:12.818Z,22.1
2018-01-29T06:20:12.867Z,22.1
2018-01-29T06:21:13.014Z,22.1
2018-01-29T06:22:13.093Z,22.1
2018-01-29T06:23:12.464Z,22.1
2018-01-29T06:24:12.860Z,22.1
2018-01-29T06:25:12.674Z,22.1
2018-01-29T06:26:12.615Z,22.1
2018-01-29T06:27:12.690Z,22.1
2018-01-29T06:28:12.072Z,22.1
2018-01-29T06:29:12.921Z,22.1
2018-01-29T06:30:12.296Z,22.1
2018-01-29T06:31:12.013Z,22.1
2018-01-29T06:32:11.918Z,22.1
2018-01-29T06:33:11.924Z,22.1
2018-01-29T06:34:11.921Z,22.1
2018-01-29T06:35:12.103Z,22.1
2018-01-29T06:36:11.633Z,22.2
2018-01-29T06:37:11.629Z,22.1
2018-01-29T06:38:11.467Z,22.2
2018-01-29T06:39:11.379Z,22.2
2018-01-29T06:40:11.709Z,22.1
2018-01-29T06:41:11.192Z,22.1
2018-01-29T06:42:11.526Z,22.1
2018-01-29T06:43:11.385Z,22.1
2018-01-29T06:44:10.823Z,22.1
2018-01-29T06:45:11.018Z,22.1
2018-01-29T06:46:11.233Z,22.1
2018-01-29T06:47:11.198Z,22.2
2018-01-29T06:48:10.805Z,22.2
2018-01-29T06:49:10.624Z,22.2
2018-01-29T06:50:10.390Z,22.2
2018-01-29T06:51:10.729Z,22.2
2018-01-29T06:52:10.453Z,22.2
2018-01-29T06:53:10.479Z,22.2
2018-01-29T06:54:10.870Z,22.2
2018-01-29T06:55:10.136Z,22.2
2018-01-29T06:56:10.174Z,22.2
2018-01-29T06:57:09.864Z,22.2
2018-01-29T06:58:10.055Z,22.2
2018-01-29T06:59:09.884Z,22.2
2018-01-29T07:00:09.741Z,22.2
2018-01-29T07:01:09.860Z,22.2
2018-01-29T07:02:09.439Z,22.2
2018-01-29T07:03:10.084Z,22.2
2018-01-29T07:04:09.550Z,22.2
2018-01-29T07:05:09.664Z,22.2
2018-01-29T07:06:09.327Z,22.2
2018-01-29T07:07:09.299Z,22.2
2018-01-29T07:08:09.208Z,22.3
2018-01-29T07:09:09.038Z,22.2
2018-01-29T07:10:09.039Z,22.2
2018-01-29T07:11:08.784Z,22.2
2018-01-29T07:12:09.046Z,22.2
2018-01-29T07:13:09.004Z,22.3
2018-01-29T07:14:08.523Z,22.2
2018-01-29T07:15:08.670Z,22.3
2018-01-29T07:16:08.585Z,22.2
2018-01-29T07:17:08.321Z,22.2
2018-01-29T07:18:08.418Z,22.2
2018-01-29T07:19:08.461Z,22.2
2018-01-29T07:20:08.252Z,22.3
2018-01-29T07:21:07.980Z,22.2
2018-01-29T07:22:07.889Z,22.2
2018-01-29T07:23:08.277Z,22.3
2018-01-29T07:24:08.145Z,22.3
2018-01-29T07:25:07.775Z,22.3
2018-01-29T07:26:07.907Z,22.3
2018-01-29T07:27:07.619Z,22.3
2018-01-29T07:28:07.884Z,22.3
2018-01-29T07:29:07.468Z,22.3
2018-01-29T07:30:07.838Z,22.3
2018-01-29T07:31:07.287Z,22.3
2018-01-29T07:32:07.342Z,22.3
2018-01-29T07:33:07.532Z,22.3
2018-01-29T07:34:07.078Z,22.3
2018-01-29T07:35:06.989Z,22.2
2018-01-29T07:36:06.909Z,22.3
2018-01-29T07:37:07.012Z,22.2
2018-01-29T07:38:06.922Z,22.3
2018-01-29T07:39:06.621Z,22.2
2018-01-29T07:40:06.427Z,22.3
2018-01-29T07:41:06.498Z,22.3
2018-01-29T07:42:06.845Z,22.3
2018-01-29T07:43:06.262Z,22.3
2018-01-29T07:44:06.530Z,22.2
2018-01-29T07:45:06.669Z,22.3
2018-01-29T07:46:06.172Z,22.3
2018-01-29T07:47:05.982Z,22.3
2018-01-29T07:48:05.991Z,22.3
2018-01-29T07:49:05.903Z,22.2
2018-01-29T07:50:06.037Z,22.2
2018-01-29T07:51:05.664Z,22.2
2018-01-29T07:52:06.155Z,22.2
2018-01-29T07:53:05.887Z,22.2
2018-01-29T07:54:05.747Z,22.2
2018-01-29T07:55:05.347Z,22.2
2018-01-29T07:56:05.304Z,22.2
2018-01-29T07:57:05.541Z,22.2
2018-01-29T07:58:05.257Z,22.2
2018-01-29T07:59:05.282Z,22.2
2018-01-29T08:00:05.329Z,22.2
2018-01-29T08:01:05.018Z,22.2
2018-01-29T08:02:05.213Z,22.2
2018-01-29T08:03:04.926Z,22.2
2018-01-29T08:04:04.834Z,22.2
2018-01-29T08:05:04.792Z,22.2
2018-01-29T08:06:04.980Z,22.2
2018-01-29T08:07:04.914Z,22.2
2018-01-29T08:08:04.651Z,22.2
2018-01-29T08:09:05.032Z,22.2
2018-01-29T08:10:04.403Z,22.2
2018-01-29T08:11:04.359Z,22.2
2018-01-29T08:12:04.575Z,22.3
2018-01-29T08:13:04.337Z,22.3
2018-01-29T08:14:04.248Z,22.3
2018-01-29T08:15:04.365Z,22.3
2018-01-29T08:16:03.999Z,22.3
2018-01-29T08:17:03.985Z,22.3
2018-01-29T08:18:03.842Z,22.3
2018-01-29T08:19:03.984Z,22.3
2018-01-29T08:20:03.926Z,22.3
2018-01-29T08:21:04.071Z,22.3
2018-01-29T08:22:03.821Z,22.3
2018-01-29T08:23:03.435Z,22.2
2018-01-29T08:24:03.538Z,22.3
2018-01-29T08:25:03.381Z,22.3
2018-01-29T08:26:03.323Z,22.3
2018-01-29T08:27:03.632Z,22.3
2018-01-29T08:28:03.563Z,22.3
2018-01-29T08:29:03.610Z,22.3
2018-01-29T08:30:02.939Z,22.3
2018-01-29T08:31:03.066Z,22.3
2018-01-29T08:32:03.134Z,22.3
2018-01-29T08:33:03.152Z,22.3
2018-01-29T08:34:02.683Z,22.3
2018-01-29T08:35:03.032Z,22.3
2018-01-29T08:36:02.614Z,22.3
2018-01-29T08:37:02.664Z,22.3
2018-01-29T08:38:02.374Z,22.3
2018-01-29T08:39:03.041Z,22.3
2018-01-29T08:40:02.481Z,22.3
2018-01-29T08:41:02.685Z,22.3
2018-01-29T08:42:02.379Z,22.3
2018-01-29T08:43:02.463Z,22.3
2018-01-29T08:44:02.163Z,22.3
2018-01-29T08:45:02.010Z,22.3
2018-01-29T08:46:02.496Z,22.3
2018-01-29T08:47:01.861Z,22.3
2018-01-29T08:48:01.978Z,22.3
2018-01-29T08:49:02.375Z,22.3
2018-01-29T08:50:01.757Z,22.4
2018-01-29T08:51:01.770Z,22.3
2018-01-29T08:52:01.535Z,22.3
2018-01-29T08:53:01.833Z,22.3
2018-01-29T08:54:01.498Z,22.3
2018-01-29T08:55:01.299Z,22.3
2018-01-29T08:56:01.378Z,22.4
2018-01-29T08:57:01.206Z,22.4
2018-01-29T08:58:01.535Z,22.4
2018-01-29T08:59:01.038Z,22.4
2018-01-29T09:00:01.243Z,22.4
2018-01-29T09:01:00.805Z,22.4
2018-01-29T09:02:01.033Z,22.4
2018-01-29T09:03:00.753Z,22.4
2018-01-29T09:04:00.998Z,22.4
2018-01-29T09:05:00.725Z,22.4
2018-01-29T09:06:01.311Z,22.4
2018-01-29T09:07:00.493Z,22.4
2018-01-29T09:08:00.621Z,22.4
2018-01-29T09:09:00.158Z,22.4
2018-01-29T09:10:00.549Z,22.4
2018-01-29T09:11:00.313Z,22.4
2018-01-29T09:12:00.393Z,22.4
2018-01-29T09:13:00.255Z,22.4
2018-01-29T09:14:00.159Z,22.4
2018-01-29T09:15:00.239Z,22.4
2018-01-29T09:16:00.018Z,22.4
2018-01-29T09:16:59.886Z,22.4
2018-01-29T09:17:59.815Z,22.4
2018-01-29T09:19:00.263Z,22.4
2018-01-29T09:19:59.870Z,22.4
2018-01-29T09:20:59.724Z,22.4
2018-01-29T09:21:59.412Z,22.4
2018-01-29T09:22:59.437Z,22.4
2018-01-29T09:23:59.305Z,22.4
2018-01-29T09:24:59.226Z,22.4
2018-01-29T09:25:59.347Z,22.4
2018-01-29T09:26:59.078Z,22.4
2018-01-29T09:27:59.047Z,22.4
2018-01-29T09:28:58.961Z,22.4
2018-01-29T09:29:59.297Z,22.5
2018-01-29T09:30:58.932Z,22.5
2018-01-29T09:31:58.844Z,22.5
2018-01-29T09:32:58.596Z,22.5
2018-01-29T09:33:58.538Z,22.5
2018-01-29T09:34:58.754Z,22.5
2018-01-29T09:35:58.657Z,22.5
2018-01-29T09:36:58.585Z,22.5
2018-01-29T09:37:58.624Z,22.5
2018-01-29T09:38:58.207Z,22.5
2018-01-29T09:39:58.408Z,22.5
2018-01-29T09:40:58.349Z,22.5
2018-01-29T09:41:58.063Z,22.5
2018-01-29T09:42:57.994Z,22.5
2018-01-29T09:43:58.160Z,22.5
2018-01-29T09:44:57.954Z,22.5
2018-01-29T09:45:57.716Z,22.5
2018-01-29T09:46:57.870Z,22.5
2018-01-29T09:47:57.765Z,22.6
2018-01-29T09:48:57.981Z,22.5
2018-01-29T09:49:57.326Z,22.5
2018-01-29T09:50:57.714Z,22.4
2018-01-29T09:51:57.231Z,22.5
2018-01-29T09:52:57.251Z,22.5
2018-01-29T09:53:57.224Z,22.5
2018-01-29T09:54:57.373Z,22.5
2018-01-29T09:55:57.188Z,22.5
2018-01-29T09:56:56.923Z,22.5
2018-01-29T09:57:56.840Z,22.5
2018-01-29T09:58:56.891Z,22.5
2018-01-29T09:59:56.898Z,22.5
2018-01-29T10:00:56.754Z,22.5
2018-01-29T10:01:56.704Z,22.5
2018-01-29T10:02:56.669Z,22.4
2018-01-29T10:03:56.746Z,22.4
2018-01-29T10:04:56.754Z,22.5
2018-01-29T10:05:56.390Z,22.4
2018-01-29T10:06:56.614Z,22.4
2018-01-29T10:07:56.711Z,22.4
2018-01-29T10:08:56.043Z,22.4
2018-01-29T10:09:56.303Z,22.4
2018-01-29T10:10:56.125Z,22.4
2018-01-29T10:11:55.895Z,22.4
2018-01-29T10:12:56.008Z,22.4
2018-01-29T10:13:55.851Z,22.4
2018-01-29T10:14:55.985Z,22.4
2018-01-29T10:15:55.690Z,22.4
2018-01-29T10:16:55.704Z,22.4
2018-01-29T10:17:55.604Z,22.4
2018-01-29T10:18:55.500Z,22.4
2018-01-29T10:19:55.540Z,22.4
2018-01-29T10:20:55.249Z,22.4
2018-01-29T10:21:55.121Z,22.4
2018-01-29T10:22:55.311Z,22.4
2018-01-29T10:23:55.156Z,22.4
2018-01-29T10:24:55.052Z,22.4
2018-01-29T10:25:55.465Z,22.4
2018-01-29T10:26:54.890Z,22.4
2018-01-29T10:27:54.848Z,22.4
2018-01-29T10:28:54.818Z,22.4
2018-01-29T10:29:54.839Z,22.4
2018-01-29T10:30:54.952Z,22.4
2018-01-29T10:31:54.620Z,22.4
2018-01-29T10:32:54.724Z,22.4
2018-01-29T10:33:54.587Z,22.4
2018-01-29T10:34:54.885Z,22.4
2018-01-29T10:35:54.218Z,22.4
2018-01-29T10:36:54.364Z,22.4
2018-01-29T10:37:54.502Z,22.4
2018-01-29T10:38:54.211Z,22.4
2018-01-29T10:39:54.452Z,22.4
2018-01-29T10:40:54.195Z,22.4
2018-01-29T10:41:54.312Z,22.4
2018-01-29T10:42:54.018Z,22.4
2018-01-29T10:43:53.965Z,22.4
2018-01-29T10:44:53.904Z,22.4
2018-01-29T10:45:53.634Z,22.4
2018-01-29T10:46:53.561Z,22.4
2018-01-29T10:47:53.723Z,22.4
2018-01-29T10:48:53.530Z,22.5
2018-01-29T10:49:53.637Z,22.4
2018-01-29T10:50:53.344Z,22.4
2018-01-29T10:51:53.517Z,22.4
2018-01-29T10:52:53.255Z,22.4
2018-01-29T10:53:53.338Z,22.4
2018-01-29T10:54:52.920Z,22.4
2018-01-29T10:55:53.105Z,22.4
2018-01-29T10:56:53.117Z,22.4
2018-01-29T10:57:52.808Z,22.4
2018-01-29T10:58:52.955Z,22.4
2018-01-29T10:59:52.770Z,22.4
2018-01-29T11:00:52.693Z,22.4
2018-01-29T11:01:52.910Z,22.5
2018-01-29T11:02:52.548Z,22.4
2018-01-29T11:03:52.469Z,22.4
2018-01-29T11:04:52.323Z,22.4
2018-01-29T11:05:52.274Z,22.4
2018-01-29T11:06:52.445Z,22.4
2018-01-29T11:07:52.421Z,22.4
2018-01-29T11:08:51.929Z,22.5
2018-01-29T11:09:52.194Z,22.5
2018-01-29T11:10:52.092Z,22.4
2018-01-29T11:11:52.204Z,22.5
2018-01-29T11:12:51.822Z,22.4
2018-01-29T11:13:51.891Z,22.5
2018-01-29T11:14:51.471Z,22.4
2018-01-29T11:15:52.057Z,22.4
2018-01-29T11:16:51.495Z,22.4
2018-01-29T11:17:51.796Z,22.5
2018-01-29T11:18:51.359Z,22.4
2018-01-29T11:19:51.263Z,22.4
2018-01-29T11:20:51.190Z,22.4
2018-01-29T11:21:51.294Z,22.5
2018-01-29T11:22:51.186Z,22.5
2018-01-29T11:23:51.115Z,22.4
2018-01-29T11:24:51.084Z,22.4
2018-01-29T11:25:51.064Z,22.4
2018-01-29T11:26:50.769Z,22.4
2018-01-29T11:27:50.967Z,22.4
2018-01-29T11:28:50.697Z,22.4
2018-01-29T11:29:50.595Z,22.4
2018-01-29T11:30:50.524Z,22.4
2018-01-29T11:31:50.458Z,22.4
2018-01-29T11:32:50.471Z,22.4
2018-01-29T11:33:50.320Z,22.4
2018-01-29T11:34:50.239Z,22.4
2018-01-29T11:35:50.194Z,22.4
2018-01-29T11:36:50.247Z,22.4
2018-01-29T11:37:50.046Z,22.4
2018-01-29T11:38:49.822Z,22.4
2018-01-29T11:39:50.111Z,22.5
2018-01-29T11:40:50.120Z,22.4
2018-01-29T11:41:50.160Z,22.4
2018-01-29T11:42:49.692Z,22.4
2018-01-29T11:43:49.976Z,22.4
2018-01-29T11:44:49.648Z,22.4
2018-01-29T11:45:49.648Z,22.4
2018-01-29T11:46:49.386Z,22.4
2018-01-29T11:47:49.456Z,22.4
2018-01-29T11:48:49.481Z,22.4
2018-01-29T11:49:49.121Z,22.4
2018-01-29T11:50:49.136Z,22.4
2018-01-29T11:51:49.592Z,22.4
2018-01-29T11:52:49.002Z,22.4
2018-01-29T11:53:49.207Z,22.4
2018-01-29T11:54:48.801Z,22.4
2018-01-29T11:55:48.798Z,22.4
2018-01-29T11:56:49.108Z,22.4
2018-01-29T11:57:48.655Z,22.4
2018-01-29T11:58:48.579Z,22.4
2018-01-29T11:59:48.704Z,22.4
2018-01-29T12:00:48.704Z,22.4
2018-01-29T12:01:48.590Z,22.4
2018-01-29T12:02:48.324Z,22.4
2018-01-29T12:03:48.236Z,22.4
2018-01-29T12:04:48.085Z,22.4
2018-01-29T12:05:48.769Z,22.4
2018-01-29T12:06:47.942Z,22.4
2018-01-29T12:07:48.265Z,22.4
2018-01-29T12:08:48.007Z,22.4
2018-01-29T12:09:47.994Z,22.4
2018-01-29T12:10:47.698Z,22.4
2018-01-29T12:11:47.682Z,22.4
2018-01-29T12:12:47.638Z,22.4
2018-01-29T12:13:47.555Z,22.4
2018-01-29T12:14:47.696Z,22.4
2018-01-29T12:15:48.211Z,22.4
2018-01-29T12:16:47.478Z,22.4
2018-01-29T12:17:47.268Z,22.4
2018-01-29T12:18:47.392Z,22.4
2018-01-29T12:19:47.417Z,22.4
2018-01-29T12:20:47.264Z,22.4
2018-01-29T12:21:46.906Z,22.4
2018-01-29T12:22:47.029Z,22.4
2018-01-29T12:23:46.861Z,22.4
2018-01-29T12:24:47.200Z,22.4
2018-01-29T12:25:46.662Z,22.4
2018-01-29T12:26:46.593Z,22.4
2018-01-29T12:27:46.490Z,22.4
2018-01-29T12:28:46.899Z,22.4
2018-01-29T12:29:46.444Z,22.4
2018-01-29T12:30:46.360Z,22.4
2018-01-29T12:31:46.251Z,22.4
2018-01-29T12:32:46.521Z,22.4
2018-01-29T12:33:46.266Z,22.4
2018-01-29T12:34:46.385Z,22.4
2018-01-29T12:35:45.914Z,22.4
2018-01-29T12:36:45.777Z,22.4
2018-01-29T12:37:46.157Z,22.4
2018-01-29T12:38:45.909Z,22.4
2018-01-29T12:39:45.817Z,22.4
2018-01-29T12:40:46.072Z,22.4
2018-01-29T12:41:45.912Z,22.4
2018-01-29T12:42:45.642Z,22.4
2018-01-29T12:43:45.477Z,22.4
2018-01-29T12:44:45.606Z,22.4
2018-01-29T12:45:45.442Z,22.4
2018-01-29T12:46:45.258Z,22.4
2018-01-29T12:47:45.231Z,22.3
2018-01-29T12:48:45.239Z,22.4
2018-01-29T12:49:45.177Z,22.4
2018-01-29T12:50:44.945Z,22.3
2018-01-29T12:51:44.914Z,22.3
2018-01-29T12:52:45.032Z,22.3
2018-01-29T12:53:45.190Z,22.3
2018-01-29T12:54:45.212Z,22.3
2018-01-29T12:55:44.588Z,22.3
2018-01-29T12:56:44.479Z,22.3
2018-01-29T12:57:44.475Z,22.3
2018-01-29T12:58:44.647Z,22.3
2018-01-29T12:59:44.935Z,22.3
2018-01-29T13:00:44.297Z,22.3
2018-01-29T13:01:44.225Z,22.3
2018-01-29T13:02:44.266Z,22.3
2018-01-29T13:03:44.368Z,22.3
2018-01-29T13:04:44.270Z,22.3
2018-01-29T13:05:44.013Z,22.3
2018-01-29T13:06:43.979Z,22.3
2018-01-29T13:07:43.918Z,22.3
2018-01-29T13:08:43.658Z,22.3
2018-01-29T13:09:43.989Z,22.3
2018-01-29T13:10:43.522Z,22.3
2018-01-29T13:11:44.182Z,22.3
2018-01-29T13:12:43.699Z,22.3
2018-01-29T13:13:43.637Z,22.3
2018-01-29T13:14:43.503Z,22.3
2018-01-29T13:16:43.194Z,22.3
2018-01-29T13:17:43.103Z,22.3
2018-01-29T13:18:42.921Z,22.3
2018-01-29T13:19:42.833Z,22.3
2018-01-29T13:20:42.818Z,22.3
2018-01-29T13:21:42.880Z,22.3
2018-01-29T13:22:42.821Z,22.3
2018-01-29T13:23:42.815Z,22.3
2018-01-29T13:24:42.560Z,22.3